createdAt,value
2018-09-10T00:01:21.686Z,18.20
2018-09-10T00:03:56.639Z,18.20
2018-09-10T00:06:31.734Z,18.20
2018-09-10T00:09:08.683Z,18.20
2018-09-10T00:11:43.819Z,18.20
2018-09-10T00:14:18.908Z,18.20
2018-09-10T00:16:54.257Z,18.20
2018-09-10T00:19:29.218Z,18.30
2018-09-10T00:22:10.662Z,18.30
2018-09-10T00:24:46.005Z,18.30
2018-09-10T00:27:21.217Z,18.30
2018-09-10T00:29:56.284Z,18.30
2018-09-10T00:32:31.346Z,18.30
2018-09-10T00:35:08.514Z,18.20
2018-09-10T00:37:44.253Z,18.20
2018-09-10T00:40:19.582Z,18.20
2018-09-10T00:42:54.684Z,18.20
2018-09-10T00:45:29.632Z,18.10
2018-09-10T00:48:04.669Z,18.10
2018-09-10T00:50:39.638Z,18.10
2018-09-10T00:53:14.902Z,18.00
2018-09-10T00:55:49.974Z,18.00
2018-09-10T00:58:24.929Z,18.00
2018-09-10T01:01:06.816Z,18.00
2018-09-10T01:03:42.079Z,18.10
2018-09-10T01:06:16.933Z,18.10
2018-09-10T01:08:51.794Z,18.10
2018-09-10T01:11:27.075Z,18.10
2018-09-10T01:14:02.065Z,18.10
2018-09-10T01:16:37.415Z,18.10
2018-09-10T01:19:13.037Z,18.10
2018-09-10T01:21:48.557Z,18.10
2018-09-10T01:24:23.684Z,18.10
2018-09-10T01:26:58.807Z,18.10
2018-09-10T01:29:34.296Z,18.00
2018-09-10T01:32:09.150Z,18.00
2018-09-10T01:34:49.446Z,18.00
2018-09-10T01:37:24.896Z,18.00
2018-09-10T01:40:00.515Z,17.90
2018-09-10T01:42:35.720Z,17.90
2018-09-10T01:45:10.906Z,17.90
2018-09-10T01:47:45.834Z,17.90
2018-09-10T01:50:21.000Z,17.80
2018-09-10T01:52:55.905Z,17.80
2018-09-10T01:55:30.819Z,17.70
2018-09-10T01:58:06.418Z,17.70
2018-09-10T02:00:41.398Z,17.60
2018-09-10T02:03:17.049Z,17.60
2018-09-10T02:05:52.526Z,17.60
2018-09-10T02:08:28.427Z,17.60
2018-09-10T02:11:03.465Z,17.50
2018-09-10T02:13:38.416Z,17.50
2018-09-10T02:16:15.686Z,17.50
2018-09-10T02:18:50.815Z,17.50
2018-09-10T02:21:26.107Z,17.40
2018-09-10T02:24:01.352Z,17.40
2018-09-10T02:26:42.858Z,17.40
2018-09-10T02:29:17.746Z,17.40
2018-09-10T02:31:53.446Z,17.40
2018-09-10T02:34:28.872Z,17.40
2018-09-10T02:37:04.086Z,17.40
2018-09-10T02:39:39.542Z,17.40
2018-09-10T02:42:14.522Z,17.40
2018-09-10T02:44:50.360Z,17.40
2018-09-10T02:47:25.247Z,17.40
2018-09-10T02:50:00.235Z,17.40
2018-09-10T02:52:35.259Z,17.40
2018-09-10T02:55:10.655Z,17.40
2018-09-10T02:57:46.635Z,17.40
2018-09-10T03:00:24.621Z,17.40
2018-09-10T03:02:59.593Z,17.40
2018-09-10T03:05:34.756Z,17.40
2018-09-10T03:08:09.884Z,17.40
2018-09-10T03:10:44.707Z,17.40
2018-09-10T03:13:20.363Z,17.40
2018-09-10T03:15:55.663Z,17.30
2018-09-10T03:18:30.682Z,17.40
2018-09-10T03:21:06.207Z,17.40
2018-09-10T03:23:42.261Z,17.40
2018-09-10T03:26:17.335Z,17.40
2018-09-10T03:28:52.515Z,17.40
2018-09-10T03:31:27.426Z,17.40
2018-09-10T03:34:02.535Z,17.40
2018-09-10T03:36:37.545Z,17.30
2018-09-10T03:39:12.759Z,17.30
2018-09-10T03:41:47.743Z,17.30
2018-09-10T03:44:22.780Z,17.30
2018-09-10T03:46:57.780Z,17.30
2018-09-10T03:49:32.636Z,17.30
2018-09-10T03:52:08.081Z,17.20
2018-09-10T03:54:43.417Z,17.30
2018-09-10T03:57:18.302Z,17.30
2018-09-10T03:59:54.208Z,17.30
2018-09-10T04:02:29.125Z,17.30
2018-09-10T04:05:04.553Z,17.30
2018-09-10T04:07:39.560Z,17.40
2018-09-10T04:10:14.628Z,17.40
2018-09-10T04:12:49.591Z,17.40
2018-09-10T04:15:24.674Z,17.40
2018-09-10T04:17:59.938Z,17.40
2018-09-10T04:20:34.872Z,17.50
2018-09-10T04:23:09.930Z,17.50
2018-09-10T04:25:44.816Z,17.40
2018-09-10T04:28:19.791Z,17.40
2018-09-10T04:30:54.722Z,17.40
2018-09-10T04:33:29.618Z,17.40
2018-09-10T04:36:05.082Z,17.40
2018-09-10T04:38:40.660Z,17.40
2018-09-10T04:41:15.434Z,17.40
2018-09-10T04:43:50.172Z,17.40
2018-09-10T04:46:25.403Z,17.40
2018-09-10T04:49:01.568Z,17.40
2018-09-10T04:51:41.837Z,17.30
2018-09-10T04:54:17.020Z,17.30
2018-09-10T04:56:51.819Z,17.30
2018-09-10T04:59:26.892Z,17.20
2018-09-10T05:02:01.836Z,17.30
2018-09-10T05:04:38.311Z,17.20
2018-09-10T05:07:13.472Z,17.20
2018-09-10T05:09:48.744Z,17.20
2018-09-10T05:12:18.369Z,17.20
2018-09-10T05:14:48.596Z,17.20
2018-09-10T05:17:18.143Z,17.20
2018-09-10T05:19:47.498Z,17.20
2018-09-10T05:22:16.777Z,17.20
2018-09-10T05:24:46.316Z,17.20
2018-09-10T05:27:22.273Z,17.20
2018-09-10T05:29:51.545Z,17.20
2018-09-10T05:32:21.885Z,17.20
2018-09-10T05:34:51.594Z,17.30
2018-09-10T05:37:22.017Z,17.30
2018-09-10T05:39:51.565Z,17.30
2018-09-10T05:42:21.107Z,17.30
2018-09-10T05:44:50.996Z,17.30
2018-09-10T05:47:20.979Z,17.30
2018-09-10T05:49:50.926Z,17.30
2018-09-10T05:52:25.184Z,17.30
2018-09-10T05:54:55.150Z,17.30
2018-09-10T05:57:24.456Z,17.40
2018-09-10T05:59:53.739Z,17.40
2018-09-10T06:02:55.031Z,17.40
2018-09-10T06:05:24.590Z,17.40
2018-09-10T06:07:55.233Z,17.40
2018-09-10T06:10:24.956Z,17.50
2018-09-10T06:12:54.877Z,17.50
2018-09-10T06:15:51.043Z,17.50
2018-09-10T06:18:21.736Z,17.50
2018-09-10T06:20:51.597Z,17.60
2018-09-10T06:23:21.505Z,17.60
2018-09-10T06:25:51.042Z,17.50
2018-09-10T06:28:20.765Z,17.60
2018-09-10T06:30:59.565Z,17.60
2018-09-10T06:33:36.849Z,17.60
2018-09-10T06:36:10.376Z,17.60
2018-09-10T06:39:09.520Z,17.60
2018-09-10T06:41:41.105Z,17.60
2018-09-10T06:44:10.718Z,17.70
2018-09-10T06:46:45.925Z,17.70
2018-09-10T06:49:22.852Z,17.80
2018-09-10T06:51:58.026Z,17.80
2018-09-10T06:54:33.863Z,17.80
2018-09-10T06:57:09.844Z,17.80
2018-09-10T06:59:44.750Z,17.90
2018-09-10T07:02:19.786Z,17.90
2018-09-10T07:04:55.190Z,18.00
2018-09-10T07:07:30.148Z,18.00
2018-09-10T07:10:05.818Z,18.00
2018-09-10T07:12:41.045Z,18.10
2018-09-10T07:15:16.103Z,18.10
2018-09-10T07:17:51.714Z,18.20
2018-09-10T07:20:21.291Z,18.10
2018-09-10T07:22:56.405Z,18.20
2018-09-10T07:25:31.416Z,18.20
2018-09-10T07:28:06.915Z,18.20
2018-09-10T07:30:42.159Z,18.30
2018-09-10T07:33:17.266Z,18.30
2018-09-10T07:35:52.323Z,18.40
2018-09-10T07:38:27.817Z,18.50
2018-09-10T07:41:03.250Z,18.50
2018-09-10T07:43:38.246Z,18.50
2018-09-10T07:46:13.512Z,18.50
2018-09-10T07:48:48.811Z,18.50
2018-09-10T07:51:24.098Z,18.70
2018-09-10T07:53:59.545Z,18.70
2018-09-10T07:56:34.607Z,18.80
2018-09-10T07:59:09.958Z,18.80
2018-09-10T08:01:48.741Z,18.80
2018-09-10T08:04:25.986Z,18.80
2018-09-10T08:07:03.485Z,18.80
2018-09-10T08:09:39.867Z,18.90
2018-09-10T08:12:16.211Z,18.90
2018-09-10T08:14:56.823Z,19.00
2018-09-10T08:17:40.894Z,19.10
2018-09-10T08:22:38.420Z,19.10
2018-09-10T08:25:14.571Z,19.00
2018-09-10T08:27:50.233Z,19.10
2018-09-10T08:30:25.618Z,19.10
2018-09-10T08:33:01.528Z,19.20
2018-09-10T08:35:45.639Z,19.40
2018-09-10T08:38:23.358Z,19.50
2018-09-10T08:40:58.670Z,19.70
2018-09-10T08:43:34.218Z,19.90
2018-09-10T08:46:10.574Z,20.00
2018-09-10T08:48:45.752Z,20.00
2018-09-10T08:51:21.527Z,20.00
2018-09-10T08:53:56.729Z,20.00
2018-09-10T08:56:32.359Z,20.10
2018-09-10T08:59:07.742Z,20.10
2018-09-10T09:01:42.983Z,20.20
2018-09-10T09:04:20.793Z,20.20
2018-09-10T09:07:10.719Z,20.20
2018-09-10T09:09:49.112Z,20.10
2018-09-10T09:12:24.459Z,20.10
2018-09-10T09:14:59.874Z,20.00
2018-09-10T09:17:40.452Z,20.10
2018-09-10T09:20:25.025Z,20.20
2018-09-10T09:23:06.015Z,20.40
2018-09-10T09:25:41.118Z,20.50
2018-09-10T09:28:16.061Z,20.50
2018-09-10T09:30:52.239Z,20.50
2018-09-10T09:33:28.604Z,20.50
2018-09-10T09:36:14.357Z,20.50
2018-09-10T09:38:54.755Z,20.60
2018-09-10T09:42:39.060Z,20.70
2018-09-10T09:45:19.896Z,20.70
2018-09-10T09:47:55.402Z,21.00
2018-09-10T09:50:30.875Z,21.20
2018-09-10T09:53:08.503Z,21.40
2018-09-10T09:55:43.585Z,21.70
2018-09-10T09:58:18.602Z,21.80
2018-09-10T10:00:53.573Z,22.00
2018-09-10T10:13:30.011Z,22.00
2018-09-10T10:16:05.015Z,21.90
2018-09-10T10:18:40.799Z,22.10
2018-09-10T10:21:18.630Z,22.20
2018-09-10T10:23:51.893Z,22.20
2018-09-10T10:26:27.566Z,22.20
2018-09-10T10:29:02.747Z,22.30
2018-09-10T10:31:37.977Z,22.50
2018-09-10T10:34:12.955Z,22.60
2018-09-10T10:36:48.156Z,22.60
2018-09-10T10:39:23.410Z,22.50
2018-09-10T10:41:53.238Z,22.40
2018-09-10T10:44:28.661Z,22.30
2018-09-10T10:47:03.599Z,22.30
2018-09-10T10:49:38.879Z,22.30
2018-09-10T10:52:14.480Z,22.20
2018-09-10T10:54:49.661Z,22.20
2018-09-10T10:57:24.793Z,22.30
2018-09-10T10:59:59.754Z,22.30
2018-09-10T11:02:35.066Z,22.30
2018-09-10T11:05:17.266Z,22.40
2018-09-10T11:07:52.485Z,22.50
2018-09-10T11:10:27.656Z,22.50
2018-09-10T11:13:03.181Z,22.60
2018-09-10T11:15:38.416Z,22.60
2018-09-10T11:18:14.887Z,22.50
2018-09-10T11:20:50.409Z,22.50
2018-09-10T11:23:25.520Z,22.50
2018-09-10T11:26:00.434Z,22.50
2018-09-10T11:28:35.629Z,22.50
2018-09-10T11:31:10.686Z,22.60
2018-09-10T11:33:45.626Z,22.70
2018-09-10T11:36:20.657Z,22.80
2018-09-10T11:38:55.475Z,22.90
2018-09-10T11:41:30.471Z,23.00
2018-09-10T11:44:05.653Z,23.10
2018-09-10T11:46:35.596Z,23.20
2018-09-10T11:49:05.585Z,23.30
2018-09-10T11:51:35.627Z,23.30
2018-09-10T11:54:05.188Z,23.30
2018-09-10T11:56:34.549Z,23.30
2018-09-10T11:59:04.226Z,23.30
2018-09-10T12:01:34.192Z,23.40
2018-09-10T12:04:06.847Z,23.40
2018-09-10T12:06:36.424Z,23.40
2018-09-10T12:09:07.927Z,23.40
2018-09-10T12:11:37.295Z,23.40
2018-09-10T12:14:07.481Z,23.30
2018-09-10T12:16:37.828Z,23.20
2018-09-10T12:19:07.735Z,23.10
2018-09-10T12:21:37.156Z,23.10
2018-09-10T12:24:07.172Z,23.10
2018-09-10T12:26:36.869Z,23.00
2018-09-10T12:29:06.654Z,23.00
2018-09-10T12:31:36.358Z,23.00
2018-09-10T12:34:06.141Z,23.10
2018-09-10T12:36:36.331Z,23.10
2018-09-10T12:39:09.610Z,23.20
2018-09-10T12:41:39.127Z,23.20
2018-09-10T12:44:08.708Z,23.20
2018-09-10T12:46:39.689Z,23.20
2018-09-10T12:49:09.489Z,23.20
2018-09-10T12:51:41.225Z,23.30
2018-09-10T12:54:16.431Z,23.30
2018-09-10T12:56:51.498Z,23.20
2018-09-10T12:59:26.465Z,23.20
2018-09-10T13:02:01.596Z,23.10
2018-09-10T13:04:36.961Z,23.10
2018-09-10T13:07:12.024Z,23.00
2018-09-10T13:09:53.724Z,22.90
2018-09-10T13:12:29.675Z,22.90
2018-09-10T13:15:05.333Z,23.00
2018-09-10T13:17:40.879Z,23.00
2018-09-10T13:20:15.689Z,23.00
2018-09-10T13:22:50.609Z,23.10
2018-09-10T13:25:26.164Z,23.10
2018-09-10T13:28:01.256Z,23.20
2018-09-10T13:30:36.186Z,23.10
2018-09-10T13:33:12.617Z,23.20
2018-09-10T13:35:47.936Z,23.20
2018-09-10T13:38:28.790Z,23.10
2018-09-10T13:41:03.861Z,23.10
2018-09-10T13:43:39.322Z,23.20
2018-09-10T13:46:14.523Z,23.10
2018-09-10T13:48:50.468Z,23.10
2018-09-10T13:51:26.717Z,23.20
2018-09-10T13:54:02.317Z,23.30
2018-09-10T13:56:37.850Z,23.20
2018-09-10T13:59:12.796Z,23.20
2018-09-10T14:01:48.003Z,23.20
2018-09-10T14:04:23.024Z,23.20
2018-09-10T14:06:57.918Z,23.10
2018-09-10T14:09:33.297Z,23.10
2018-09-10T14:12:09.040Z,23.00
2018-09-10T14:14:45.329Z,23.00
2018-09-10T14:17:27.266Z,22.90
2018-09-10T14:20:03.108Z,22.90
2018-09-10T14:22:38.025Z,22.90
2018-09-10T14:25:13.300Z,22.90
2018-09-10T14:27:55.366Z,22.90
2018-09-10T14:30:31.476Z,23.00
2018-09-10T14:33:06.738Z,23.10
2018-09-10T14:35:42.339Z,23.10
2018-09-10T14:38:18.343Z,23.20
2018-09-10T14:40:54.321Z,23.30
2018-09-10T14:43:29.684Z,23.40
2018-09-10T14:46:05.515Z,23.40
2018-09-10T14:48:40.788Z,23.40
2018-09-10T14:51:16.204Z,23.50
2018-09-10T14:53:51.746Z,23.50
2018-09-10T14:56:27.734Z,23.40
2018-09-10T14:59:02.988Z,23.40
2018-09-10T15:01:39.112Z,23.40
2018-09-10T15:04:14.776Z,23.40
2018-09-10T15:06:49.879Z,23.30
2018-09-10T15:09:25.123Z,23.20
2018-09-10T15:12:00.712Z,23.10
2018-09-10T15:14:36.340Z,23.10
2018-09-10T15:17:11.698Z,23.10
2018-09-10T15:19:47.213Z,23.00
2018-09-10T15:22:22.198Z,23.10
2018-09-10T15:24:57.478Z,23.20
2018-09-10T15:27:32.527Z,23.20
2018-09-10T15:30:08.143Z,23.20
2018-09-10T15:32:43.427Z,23.20
2018-09-10T15:35:18.919Z,23.10
2018-09-10T15:37:54.040Z,23.00
2018-09-10T15:40:29.994Z,22.90
2018-09-10T15:43:04.993Z,22.90
2018-09-10T15:45:40.762Z,22.90
2018-09-10T15:48:22.276Z,22.90
2018-09-10T15:50:57.339Z,22.80
2018-09-10T15:53:32.538Z,22.80
2018-09-10T15:56:08.077Z,22.80
2018-09-10T15:58:43.758Z,22.80
2018-09-10T16:01:19.181Z,22.70
2018-09-10T16:03:54.303Z,22.60
2018-09-10T16:06:29.494Z,22.60
2018-09-10T16:09:04.821Z,22.60
2018-09-10T16:11:40.538Z,22.50
2018-09-10T16:14:16.375Z,22.40
2018-09-10T16:16:51.667Z,22.40
2018-09-10T16:19:27.005Z,22.40
2018-09-10T16:22:01.931Z,22.40
2018-09-10T16:24:37.249Z,22.40
2018-09-10T16:27:12.910Z,22.30
2018-09-10T16:29:47.901Z,22.30
2018-09-10T16:32:23.143Z,22.20
2018-09-10T16:34:58.507Z,22.20
2018-09-10T16:37:33.788Z,22.20
2018-09-10T16:40:08.830Z,22.10
2018-09-10T16:42:43.953Z,22.10
2018-09-10T16:45:19.416Z,22.10
2018-09-10T16:47:54.434Z,22.10
2018-09-10T16:50:29.797Z,22.00
2018-09-10T16:53:08.640Z,22.10
2018-09-10T16:55:43.963Z,22.00
2018-09-10T16:58:19.562Z,22.00
2018-09-10T17:00:54.668Z,22.00
2018-09-10T17:03:30.040Z,21.90
2018-09-10T17:06:05.960Z,21.90
2018-09-10T17:08:41.232Z,21.90
2018-09-10T17:11:16.756Z,21.80
2018-09-10T17:13:53.084Z,21.80
2018-09-10T17:16:28.735Z,21.70
2018-09-10T17:19:04.163Z,21.70
2018-09-10T17:21:39.250Z,21.70
2018-09-10T17:24:14.095Z,21.70
2018-09-10T17:26:49.510Z,21.70
2018-09-10T17:29:25.594Z,21.60
2018-09-10T17:32:00.702Z,21.60
2018-09-10T17:34:35.998Z,21.60
2018-09-10T17:37:11.313Z,21.50
2018-09-10T17:39:46.585Z,21.50
2018-09-10T17:42:22.662Z,21.50
2018-09-10T17:44:58.011Z,21.40
2018-09-10T17:47:34.311Z,21.40
2018-09-10T17:50:09.851Z,21.30
2018-09-10T17:52:45.027Z,21.30
2018-09-10T17:55:20.189Z,21.20
2018-09-10T17:57:55.463Z,21.20
2018-09-10T18:00:30.278Z,21.20
2018-09-10T18:03:05.500Z,21.10
2018-09-10T18:05:40.621Z,21.10
2018-09-10T18:08:15.442Z,21.10
2018-09-10T18:10:50.598Z,21.00
2018-09-10T18:13:25.550Z,21.00
2018-09-10T18:16:00.828Z,21.00
2018-09-10T18:18:36.758Z,21.00
2018-09-10T18:21:11.923Z,20.90
2018-09-10T18:23:42.221Z,20.90
2018-09-10T18:26:12.381Z,20.90
2018-09-10T18:28:42.173Z,20.90
2018-09-10T18:31:11.797Z,20.90
2018-09-10T18:33:41.276Z,20.80
2018-09-10T18:36:11.030Z,20.80
2018-09-10T18:38:40.758Z,20.80
2018-09-10T18:41:14.548Z,20.70
2018-09-10T18:43:44.303Z,20.70
2018-09-10T18:46:14.593Z,20.60
2018-09-10T18:48:44.259Z,20.60
2018-09-10T18:51:13.950Z,20.50
2018-09-10T18:53:43.785Z,20.50
2018-09-10T18:56:13.536Z,20.40
2018-09-10T18:58:43.217Z,20.30
2018-09-10T19:01:13.221Z,20.30
2018-09-10T19:03:42.625Z,20.20
2018-09-10T19:06:12.551Z,20.20
2018-09-10T19:08:42.539Z,20.10
2018-09-10T19:11:12.811Z,20.10
2018-09-10T19:13:43.008Z,20.00
2018-09-10T19:16:12.925Z,20.00
2018-09-10T19:18:42.434Z,19.90
2018-09-10T19:21:12.181Z,19.90
2018-09-10T19:23:41.739Z,19.90
2018-09-10T19:26:11.850Z,19.80
2018-09-10T19:28:46.903Z,19.80
2018-09-10T19:31:22.095Z,19.80
2018-09-10T19:34:04.117Z,19.80
2018-09-10T19:36:39.274Z,19.70
2018-09-10T19:39:14.536Z,19.70
2018-09-10T19:41:49.820Z,19.70
2018-09-10T19:44:24.850Z,19.70
2018-09-10T19:46:59.984Z,19.70
2018-09-10T19:49:35.487Z,19.60
2018-09-10T19:52:10.339Z,19.60
2018-09-10T19:54:46.849Z,19.60
2018-09-10T19:57:22.277Z,19.60
2018-09-10T19:59:57.631Z,19.50
2018-09-10T20:02:32.774Z,19.60
2018-09-10T20:05:08.215Z,19.50
2018-09-10T20:07:43.563Z,19.50
2018-09-10T20:10:18.719Z,19.40
2018-09-10T20:12:53.944Z,19.40
2018-09-10T20:15:29.412Z,19.30
2018-09-10T20:18:04.735Z,19.30
2018-09-10T20:20:40.071Z,19.30
2018-09-10T20:23:15.159Z,19.30
2018-09-10T20:25:50.030Z,19.20
2018-09-10T20:28:25.411Z,19.20
2018-09-10T20:31:00.821Z,19.20
2018-09-10T20:34:08.956Z,19.20
2018-09-10T20:36:44.419Z,19.10
2018-09-10T20:39:14.315Z,19.10
2018-09-10T20:41:49.906Z,19.10
2018-09-10T20:44:25.050Z,19.10
2018-09-10T20:47:00.477Z,19.10
2018-09-10T20:49:35.715Z,19.10
2018-09-10T20:52:11.054Z,19.10
2018-09-10T20:54:46.483Z,19.20
2018-09-10T20:57:21.905Z,19.20
2018-09-10T20:59:57.064Z,19.20
2018-09-10T21:02:32.278Z,19.20
2018-09-10T21:05:07.577Z,19.20
2018-09-10T21:07:42.994Z,19.20
2018-09-10T21:10:18.791Z,19.10
2018-09-10T21:12:54.128Z,19.10
2018-09-10T21:15:29.243Z,19.10
2018-09-10T21:18:05.131Z,19.10
2018-09-10T21:20:40.648Z,19.00
2018-09-10T21:23:15.744Z,19.00
2018-09-10T21:25:51.002Z,19.00
2018-09-10T21:28:26.462Z,18.90
2018-09-10T21:31:01.226Z,18.90
2018-09-10T21:33:36.327Z,18.90
2018-09-10T21:36:11.512Z,18.80
2018-09-10T21:38:46.530Z,18.80
2018-09-10T21:41:22.299Z,18.70
2018-09-10T21:43:57.767Z,18.70
2018-09-10T21:46:27.103Z,18.70
2018-09-10T21:49:02.241Z,18.70
2018-09-10T21:51:38.195Z,18.60
2018-09-10T21:54:13.418Z,18.60
2018-09-10T21:56:49.214Z,18.50
2018-09-10T21:59:24.382Z,18.50
2018-09-10T22:02:00.085Z,18.50
2018-09-10T22:04:41.642Z,18.40
2018-09-10T22:07:11.605Z,18.40
2018-09-10T22:09:46.580Z,18.40
2018-09-10T22:12:22.243Z,18.40
2018-09-10T22:14:57.486Z,18.30
2018-09-10T22:17:39.207Z,18.30
2018-09-10T22:20:14.127Z,18.30
2018-09-10T22:22:49.285Z,18.20
2018-09-10T22:25:24.700Z,18.20
2018-09-10T22:28:00.297Z,18.20
2018-09-10T22:30:37.041Z,18.20
2018-09-10T22:33:12.795Z,18.10
2018-09-10T22:35:48.952Z,18.10
2018-09-10T22:38:24.839Z,18.00
2018-09-10T22:41:00.181Z,18.00
2018-09-10T22:43:36.106Z,18.00
2018-09-10T22:46:11.811Z,18.00
2018-09-10T22:48:46.939Z,18.00
2018-09-10T22:51:22.136Z,17.90
2018-09-10T22:53:57.517Z,17.90
2018-09-10T22:56:32.237Z,17.90
2018-09-10T22:59:07.658Z,17.80
2018-09-10T23:01:43.073Z,17.80
2018-09-10T23:04:18.670Z,17.70
2018-09-10T23:06:53.926Z,17.70
2018-09-10T23:09:28.819Z,17.70
2018-09-10T23:12:04.004Z,17.70
2018-09-10T23:14:38.878Z,17.60
2018-09-10T23:17:14.045Z,17.60
2018-09-10T23:19:49.156Z,17.60
2018-09-10T23:22:24.266Z,17.60
2018-09-10T23:25:00.350Z,17.50
2018-09-10T23:27:35.251Z,17.50
2018-09-10T23:30:10.297Z,17.40
2018-09-10T23:32:45.204Z,17.40
2018-09-10T23:35:20.318Z,17.40
2018-09-10T23:37:55.094Z,17.30
2018-09-10T23:40:30.685Z,17.30
2018-09-10T23:43:05.956Z,17.30
2018-09-10T23:45:41.230Z,17.30
2018-09-10T23:48:16.570Z,17.30
2018-09-10T23:50:51.918Z,17.30
2018-09-10T23:53:26.875Z,17.30
2018-09-10T23:56:02.512Z,17.30
2018-09-10T23:58:37.690Z,17.20
